createdAt,value
2023-12-19T00:03:44.197Z,7.47
2023-12-19T00:13:48.034Z,7.60
2023-12-19T00:23:51.957Z,7.58
2023-12-19T00:33:56.055Z,7.56
2023-12-19T00:44:01.980Z,7.60
2023-12-19T00:54:06.274Z,7.65
2023-12-19T01:04:10.857Z,7.54
2023-12-19T01:14:14.684Z,7.42
2023-12-19T01:24:18.558Z,7.33
2023-12-19T01:34:23.059Z,7.20
2023-12-19T01:44:27.042Z,7.15
2023-12-19T01:54:31.475Z,7.15
2023-12-19T02:04:35.476Z,7.17
2023-12-19T02:14:40.305Z,7.13
2023-12-19T02:24:45.539Z,7.09
2023-12-19T02:34:50.617Z,7.12
2023-12-19T02:44:54.420Z,7.08
2023-12-19T02:54:58.315Z,7.18
2023-12-19T03:05:02.508Z,7.29
2023-12-19T03:15:07.579Z,7.24
2023-12-19T03:25:11.618Z,7.21
2023-12-19T03:35:15.675Z,7.29
2023-12-19T03:45:20.367Z,7.30
2023-12-19T03:55:24.149Z,7.22
2023-12-19T04:05:28.090Z,7.00
2023-12-19T04:15:32.074Z,7.04
2023-12-19T04:25:36.929Z,7.07
2023-12-19T04:35:40.873Z,7.09
2023-12-19T04:45:44.731Z,7.14
2023-12-19T04:55:48.680Z,7.10
2023-12-19T05:05:52.702Z,7.11
2023-12-19T05:15:56.938Z,7.25
2023-12-19T05:26:00.846Z,7.21
2023-12-19T05:36:04.978Z,7.21
2023-12-19T05:46:08.880Z,7.32
2023-12-19T05:56:14.775Z,7.31
2023-12-19T06:06:18.886Z,7.35
2023-12-19T06:16:23.188Z,7.43
2023-12-19T06:26:27.068Z,7.51
2023-12-19T06:36:33.158Z,7.62
2023-12-19T06:46:37.038Z,7.74
2023-12-19T06:56:41.488Z,7.71
2023-12-19T07:06:46.256Z,7.74
2023-12-19T07:16:50.098Z,7.78
2023-12-19T07:26:57.543Z,7.89
2023-12-19T07:37:01.963Z,7.71
2023-12-19T07:47:06.100Z,7.76
2023-12-19T07:57:09.948Z,7.73
2023-12-19T08:07:14.212Z,7.71
2023-12-19T08:17:20.271Z,7.73
2023-12-19T08:27:28.236Z,7.84
2023-12-19T08:37:32.714Z,7.98
2023-12-19T08:47:36.620Z,8.00
2023-12-19T08:57:44.058Z,8.10
2023-12-19T09:07:48.536Z,8.21
2023-12-19T09:17:52.482Z,8.23
2023-12-19T09:27:57.450Z,8.27
2023-12-19T09:38:03.045Z,8.26
2023-12-19T09:48:10.540Z,8.16
2023-12-19T09:58:17.134Z,8.14
2023-12-19T10:08:21.111Z,8.03
2023-12-19T10:18:31.206Z,8.09
2023-12-19T10:28:39.450Z,8.06
2023-12-19T10:38:49.833Z,7.92
2023-12-19T10:48:55.964Z,7.93
2023-12-19T10:59:02.854Z,7.91
2023-12-19T11:09:09.806Z,8.00
2023-12-19T11:19:13.895Z,8.10
2023-12-19T11:29:44.256Z,8.17
2023-12-19T11:39:48.949Z,8.27
2023-12-19T11:49:53.305Z,8.28
2023-12-19T11:59:57.643Z,8.42
2023-12-19T12:10:05.864Z,8.56
2023-12-19T12:20:11.083Z,8.59
2023-12-19T12:30:15.313Z,8.57
2023-12-19T12:40:19.445Z,8.39
2023-12-19T12:50:23.547Z,8.25
2023-12-19T13:00:27.757Z,8.20
2023-12-19T13:10:33.380Z,8.19
2023-12-19T13:20:39.140Z,8.01
2023-12-19T13:30:44.126Z,7.97
2023-12-19T13:40:48.787Z,7.90
2023-12-19T13:50:52.868Z,7.76
2023-12-19T14:00:57.196Z,7.76
2023-12-19T14:11:01.802Z,7.76
2023-12-19T14:21:06.070Z,7.77
2023-12-19T14:31:14.254Z,7.77
2023-12-19T14:41:19.243Z,7.75
2023-12-19T14:51:23.176Z,7.76
2023-12-19T15:01:28.696Z,7.82
2023-12-19T15:11:33.759Z,7.68
2023-12-19T15:21:37.655Z,7.51
2023-12-19T15:31:43.763Z,7.41
2023-12-19T15:41:47.798Z,7.41
2023-12-19T15:51:52.117Z,7.48
2023-12-19T16:01:56.273Z,7.55
2023-12-19T16:12:00.383Z,7.56
2023-12-19T16:22:05.473Z,7.47
2023-12-19T16:32:09.635Z,7.32
2023-12-19T16:42:16.837Z,7.27
2023-12-19T16:52:21.554Z,7.21
2023-12-19T17:02:25.846Z,7.19
2023-12-19T17:12:29.753Z,7.13
2023-12-19T17:22:33.823Z,7.19
2023-12-19T17:32:37.896Z,7.11
2023-12-19T17:42:42.246Z,7.01
2023-12-19T17:52:46.670Z,7.04
2023-12-19T18:02:53.321Z,7.05
2023-12-19T18:12:57.761Z,7.02
2023-12-19T18:23:03.694Z,7.08
2023-12-19T18:33:07.814Z,7.11
2023-12-19T18:43:11.905Z,7.07
2023-12-19T18:53:16.054Z,7.13
2023-12-19T19:03:20.052Z,7.20
2023-12-19T19:13:24.358Z,7.30
2023-12-19T19:23:29.147Z,7.33
2023-12-19T19:33:34.812Z,7.46
2023-12-19T19:43:43.599Z,7.43
2023-12-19T19:53:48.017Z,7.46
2023-12-19T20:03:51.906Z,7.47
2023-12-19T20:13:55.858Z,7.43
2023-12-19T20:24:02.371Z,7.38
2023-12-19T20:34:09.279Z,7.41
2023-12-19T20:44:13.398Z,7.40
2023-12-19T20:54:20.450Z,7.43
2023-12-19T21:04:24.960Z,7.54
2023-12-19T21:14:28.995Z,7.55
2023-12-19T21:24:34.157Z,7.47
2023-12-19T21:34:38.522Z,7.49
2023-12-19T21:44:42.506Z,7.46
2023-12-19T21:54:46.421Z,7.33
2023-12-19T22:04:50.641Z,7.31
2023-12-19T22:14:54.628Z,7.40
2023-12-19T22:24:58.516Z,7.43
2023-12-19T22:35:02.479Z,7.54
2023-12-19T22:45:07.273Z,7.64
2023-12-19T22:55:11.504Z,7.56
2023-12-19T23:05:15.501Z,7.48
2023-12-19T23:15:19.384Z,7.46
2023-12-19T23:25:23.479Z,7.38
2023-12-19T23:35:27.465Z,7.30
2023-12-19T23:45:31.320Z,7.24
2023-12-19T23:55:35.221Z,7.29
